createdAt,value
2018-10-12T00:01:38.443Z,12.80
2018-10-12T00:04:11.499Z,12.60
2018-10-12T00:06:44.368Z,13.20
2018-10-12T00:09:16.464Z,12.03
2018-10-12T00:11:48.364Z,12.30
2018-10-12T00:14:20.034Z,12.07
2018-10-12T00:16:52.078Z,11.93
2018-10-12T00:19:24.307Z,12.40
2018-10-12T00:21:56.185Z,11.23
2018-10-12T00:24:27.964Z,11.20
2018-10-12T00:27:00.904Z,11.37
2018-10-12T00:29:33.490Z,11.60
2018-10-12T00:32:05.961Z,11.53
2018-10-12T00:34:40.471Z,11.60
2018-10-12T00:37:12.446Z,11.20
2018-10-12T00:39:45.580Z,12.13
2018-10-12T00:42:18.030Z,10.90
2018-10-12T00:44:49.208Z,11.50
2018-10-12T00:47:21.951Z,11.10
2018-10-12T00:49:53.540Z,11.47
2018-10-12T00:52:26.149Z,11.73
2018-10-12T00:54:59.054Z,10.70
2018-10-12T00:57:31.074Z,11.57
2018-10-12T01:00:02.895Z,10.80
2018-10-12T01:02:35.543Z,10.83
2018-10-12T01:05:07.499Z,11.43
2018-10-12T01:07:40.245Z,10.40
2018-10-12T01:10:12.472Z,10.10
2018-10-12T01:12:45.530Z,10.60
2018-10-12T01:15:17.619Z,9.47
2018-10-12T01:17:49.317Z,10.07
2018-10-12T01:20:21.457Z,10.00
2018-10-12T01:22:52.844Z,9.90
2018-10-12T01:25:28.424Z,10.07
2018-10-12T01:28:00.766Z,10.73
2018-10-12T01:30:33.588Z,10.47
2018-10-12T01:33:07.081Z,9.90
2018-10-12T01:35:39.342Z,9.33
2018-10-12T01:38:12.055Z,9.67
2018-10-12T01:40:43.627Z,9.90
2018-10-12T01:43:22.713Z,9.07
2018-10-12T01:45:54.536Z,9.67
2018-10-12T01:48:26.925Z,8.53
2018-10-12T01:50:59.381Z,9.30
2018-10-12T01:53:31.074Z,9.80
2018-10-12T01:56:04.801Z,9.73
2018-10-12T01:58:42.897Z,9.47
2018-10-12T02:01:19.330Z,8.83
2018-10-12T02:03:51.825Z,9.70
2018-10-12T02:06:23.849Z,9.17
2018-10-12T02:08:55.903Z,8.87
2018-10-12T02:11:28.069Z,8.07
2018-10-12T02:14:00.820Z,8.67
2018-10-12T02:16:33.414Z,8.70
2018-10-12T02:19:05.967Z,8.67
2018-10-12T02:21:37.649Z,8.83
2018-10-12T02:24:09.648Z,9.67
2018-10-12T02:26:41.864Z,8.30
2018-10-12T02:29:14.574Z,8.80
2018-10-12T02:31:46.390Z,9.23
2018-10-12T02:34:19.029Z,8.93
2018-10-12T02:36:51.737Z,8.30
2018-10-12T02:39:23.859Z,8.50
2018-10-12T02:41:56.234Z,9.20
2018-10-12T02:44:27.910Z,8.73
2018-10-12T02:47:06.558Z,8.67
2018-10-12T02:49:38.807Z,9.17
2018-10-12T02:52:10.861Z,9.10
2018-10-12T02:54:42.919Z,9.07
2018-10-12T02:57:21.343Z,8.50
2018-10-12T02:59:54.159Z,8.90
2018-10-12T03:02:26.078Z,8.07
2018-10-12T03:04:57.679Z,8.93
2018-10-12T03:07:29.895Z,8.50
2018-10-12T03:10:02.426Z,7.87
2018-10-12T03:12:34.316Z,9.00
2018-10-12T03:15:06.464Z,9.37
2018-10-12T03:17:38.522Z,8.83
2018-10-12T03:20:10.127Z,8.33
2018-10-12T03:22:41.994Z,8.20
2018-10-12T03:25:13.286Z,8.30
2018-10-12T03:27:55.261Z,8.37
2018-10-12T03:30:28.240Z,8.23
2018-10-12T03:33:00.620Z,8.20
2018-10-12T03:35:32.811Z,8.30
2018-10-12T03:38:05.759Z,7.57
2018-10-12T03:40:37.705Z,7.40
2018-10-12T03:43:09.292Z,7.77
2018-10-12T03:45:42.086Z,7.47
2018-10-12T03:48:14.192Z,7.70
2018-10-12T03:50:46.760Z,7.60
2018-10-12T03:53:19.185Z,7.47
2018-10-12T03:55:51.303Z,7.93
2018-10-12T03:58:24.303Z,7.40
2018-10-12T04:00:56.012Z,7.33
2018-10-12T04:03:28.668Z,7.57
2018-10-12T04:06:00.752Z,8.27
2018-10-12T04:08:33.047Z,7.63
2018-10-12T04:11:04.990Z,7.10
2018-10-12T04:13:36.527Z,7.50
2018-10-12T04:16:08.847Z,7.40
2018-10-12T04:18:41.072Z,7.83
2018-10-12T04:21:13.112Z,8.13
2018-10-12T04:23:45.131Z,7.13
2018-10-12T04:26:17.363Z,7.73
2018-10-12T04:28:49.223Z,7.60
2018-10-12T04:31:21.312Z,7.70
2018-10-12T04:33:56.512Z,7.60
2018-10-12T04:36:29.155Z,7.13
2018-10-12T04:39:11.046Z,7.80
2018-10-12T04:41:43.378Z,6.63
2018-10-12T04:44:18.238Z,7.00
2018-10-12T04:46:50.914Z,7.17
2018-10-12T04:49:22.264Z,7.90
2018-10-12T04:51:57.647Z,7.07
2018-10-12T04:54:30.582Z,7.20
2018-10-12T04:57:02.749Z,7.43
2018-10-12T04:59:34.359Z,7.00
2018-10-12T05:02:06.474Z,7.83
2018-10-12T05:04:38.243Z,7.97
2018-10-12T05:07:09.978Z,7.40
2018-10-12T05:09:43.415Z,7.83
2018-10-12T05:12:14.597Z,7.33
2018-10-12T05:14:45.968Z,7.20
2018-10-12T05:17:19.825Z,7.30
2018-10-12T05:19:51.626Z,7.10
2018-10-12T05:22:23.400Z,7.60
2018-10-12T05:24:55.654Z,7.23
2018-10-12T05:27:27.340Z,7.37
2018-10-12T05:29:59.070Z,7.00
2018-10-12T05:32:31.769Z,6.63
2018-10-12T05:35:03.568Z,6.47
2018-10-12T05:37:35.214Z,6.80
2018-10-12T05:40:06.794Z,6.90
2018-10-12T05:42:38.859Z,6.93
2018-10-12T05:45:10.771Z,6.93
2018-10-12T05:47:41.926Z,6.93
2018-10-12T05:50:13.417Z,6.63
2018-10-12T05:52:45.125Z,7.53
2018-10-12T05:55:16.352Z,7.10
2018-10-12T05:57:47.763Z,6.60
2018-10-12T06:00:19.191Z,6.23
2018-10-12T06:02:50.008Z,6.63
2018-10-12T06:05:21.170Z,7.27
2018-10-12T06:07:54.502Z,7.33
2018-10-12T06:10:26.518Z,6.53
2018-10-12T06:12:57.058Z,6.67
2018-10-12T06:15:32.111Z,7.33
2018-10-12T06:18:04.609Z,6.97
2018-10-12T06:20:36.834Z,6.87
2018-10-12T06:23:08.204Z,7.17
2018-10-12T06:25:42.634Z,7.00
2018-10-12T06:28:15.845Z,7.77
2018-10-12T06:30:47.238Z,7.57
2018-10-12T06:33:20.316Z,7.03
2018-10-12T06:35:51.554Z,7.80
2018-10-12T06:38:23.900Z,7.20
2018-10-12T06:40:54.982Z,7.23
2018-10-12T06:43:26.524Z,7.70
2018-10-12T06:45:57.831Z,7.70
2018-10-12T06:48:29.201Z,7.37
2018-10-12T06:51:00.587Z,7.50
2018-10-12T06:53:32.155Z,6.83
2018-10-12T06:56:03.252Z,6.63
2018-10-12T06:58:38.856Z,6.93
2018-10-12T07:01:10.102Z,6.53
2018-10-12T07:03:42.506Z,6.87
2018-10-12T07:06:14.601Z,7.60
2018-10-12T07:08:46.431Z,6.50
2018-10-12T07:11:17.937Z,6.40
2018-10-12T07:13:49.915Z,6.33
2018-10-12T07:16:21.459Z,6.37
2018-10-12T07:18:52.576Z,6.37
2018-10-12T07:21:27.394Z,6.47
2018-10-12T07:23:58.521Z,6.67
2018-10-12T07:26:29.461Z,6.10
2018-10-12T07:29:00.612Z,5.77
2018-10-12T07:31:31.907Z,5.93
2018-10-12T07:34:03.121Z,5.80
2018-10-12T07:36:35.849Z,5.30
2018-10-12T07:39:09.364Z,5.20
2018-10-12T07:41:42.132Z,5.50
2018-10-12T07:44:13.422Z,5.50
2018-10-12T07:46:45.802Z,5.10
2018-10-12T07:49:17.430Z,5.07
2018-10-12T07:51:48.980Z,4.83
2018-10-12T07:54:20.224Z,4.80
2018-10-12T07:56:50.914Z,5.00
2018-10-12T07:59:23.258Z,4.63
2018-10-12T08:01:54.666Z,4.53
2018-10-12T08:04:26.068Z,4.77
2018-10-12T08:06:57.224Z,5.33
2018-10-12T08:09:29.146Z,4.67
2018-10-12T08:12:00.551Z,4.80
2018-10-12T08:14:32.229Z,4.57
2018-10-12T08:17:03.283Z,4.83
2018-10-12T08:19:34.139Z,4.07
2018-10-12T08:22:05.597Z,4.07
2018-10-12T08:24:36.914Z,4.30
2018-10-12T08:27:09.714Z,4.30
2018-10-12T08:29:40.880Z,4.40
2018-10-12T08:32:14.605Z,4.60
2018-10-12T08:34:46.196Z,4.23
2018-10-12T08:37:17.055Z,4.27
2018-10-12T08:39:49.231Z,4.23
2018-10-12T08:42:20.597Z,4.50
2018-10-12T08:44:51.728Z,3.63
2018-10-12T08:47:23.403Z,3.90
2018-10-12T08:49:54.998Z,3.77
2018-10-12T08:52:27.271Z,3.97
2018-10-12T08:54:58.846Z,3.97
2018-10-12T08:57:30.815Z,4.10
2018-10-12T09:00:02.485Z,4.00
2018-10-12T09:02:35.023Z,4.03
2018-10-12T09:05:06.824Z,3.80
2018-10-12T09:07:38.837Z,4.00
2018-10-12T09:10:10.858Z,3.87
2018-10-12T09:12:42.625Z,4.10
2018-10-12T09:15:14.383Z,4.27
2018-10-12T09:17:46.155Z,3.67
2018-10-12T09:20:19.414Z,3.53
2018-10-12T09:22:51.794Z,4.00
2018-10-12T09:25:23.932Z,4.03
2018-10-12T09:27:56.120Z,3.87
2018-10-12T09:30:28.412Z,4.33
2018-10-12T09:33:05.147Z,3.43
2018-10-12T09:35:42.381Z,3.63
2018-10-12T09:38:14.295Z,3.60
2018-10-12T09:40:46.699Z,3.80
2018-10-12T09:43:20.865Z,3.60
2018-10-12T09:45:54.556Z,3.73
2018-10-12T09:48:27.104Z,3.73
2018-10-12T09:50:58.830Z,4.00
2018-10-12T09:53:32.895Z,3.93
2018-10-12T09:56:04.741Z,3.80
2018-10-12T09:58:36.848Z,4.03
2018-10-12T10:01:13.613Z,3.63
2018-10-12T10:03:52.304Z,3.93
2018-10-12T10:06:25.260Z,3.70
2018-10-12T10:08:56.512Z,3.30
2018-10-12T10:11:28.482Z,3.33
2018-10-12T10:16:55.865Z,3.70
2018-10-12T10:19:28.248Z,3.30
2018-10-12T10:21:59.988Z,3.10
2018-10-12T10:24:32.258Z,3.20
2018-10-12T10:27:04.101Z,3.20
2018-10-12T10:29:35.018Z,3.43
2018-10-12T10:32:07.627Z,3.30
2018-10-12T10:34:41.054Z,3.25
2018-10-12T10:37:12.567Z,3.47
2018-10-12T10:39:44.540Z,3.15
2018-10-12T10:42:16.746Z,3.37
2018-10-12T10:44:48.167Z,3.45
2018-10-12T10:47:19.824Z,3.00
2018-10-12T10:49:54.926Z,3.02
2018-10-12T10:52:26.644Z,3.30
2018-10-12T10:55:00.361Z,3.27
2018-10-12T10:57:32.190Z,3.08
2018-10-12T11:00:04.482Z,3.42
2018-10-12T11:02:36.082Z,3.20
2018-10-12T11:05:08.253Z,2.70
2018-10-12T11:07:39.508Z,3.12
2018-10-12T11:10:11.407Z,2.80
2018-10-12T11:12:43.781Z,2.72
2018-10-12T11:15:14.864Z,2.87
2018-10-12T11:17:46.105Z,2.77
2018-10-12T11:20:19.974Z,2.62
2018-10-12T11:22:52.543Z,2.70
2018-10-12T11:25:24.135Z,2.77
2018-10-12T11:27:57.193Z,2.70
2018-10-12T11:30:30.250Z,2.98
2018-10-12T11:33:02.690Z,2.50
2018-10-12T11:35:35.421Z,2.75
2018-10-12T11:38:10.793Z,2.92
2018-10-12T11:40:42.051Z,2.50
2018-10-12T11:43:28.703Z,2.55
2018-10-12T11:46:02.186Z,2.87
2018-10-12T11:48:33.787Z,2.70
2018-10-12T11:51:06.015Z,2.80
2018-10-12T11:53:38.298Z,2.92
2018-10-12T11:56:11.091Z,2.67
2018-10-12T11:58:42.921Z,2.87
2018-10-12T12:01:14.157Z,2.70
2018-10-12T12:03:50.149Z,2.95
2018-10-12T12:06:24.818Z,3.30
2018-10-12T12:08:57.409Z,2.95
2018-10-12T12:11:29.283Z,2.62
2018-10-12T12:14:03.118Z,3.08
2018-10-12T12:16:35.478Z,2.80
2018-10-12T12:19:07.193Z,2.65
2018-10-12T12:21:38.573Z,3.00
2018-10-12T12:24:12.037Z,2.77
2018-10-12T12:26:43.596Z,2.60
2018-10-12T12:29:15.498Z,2.70
2018-10-12T12:31:49.516Z,2.40
2018-10-12T12:34:21.880Z,2.60
2018-10-12T12:36:53.491Z,2.62
2018-10-12T12:39:25.601Z,2.70
2018-10-12T12:41:59.167Z,2.60
2018-10-12T12:44:32.118Z,2.70
2018-10-12T12:47:19.228Z,2.42
2018-10-12T12:49:55.894Z,2.92
2018-10-12T12:52:30.904Z,2.47
2018-10-12T12:55:03.604Z,2.58
2018-10-12T12:57:35.446Z,2.40
2018-10-12T13:00:06.961Z,2.20
2018-10-12T13:02:43.488Z,2.30
2018-10-12T13:05:16.872Z,2.25
2018-10-12T13:07:48.304Z,2.47
2018-10-12T13:10:19.577Z,2.65
2018-10-12T13:19:17.586Z,2.15
2018-10-12T13:21:51.266Z,2.52
2018-10-12T13:24:22.287Z,2.37
2018-10-12T13:26:53.988Z,2.47
2018-10-12T13:29:24.519Z,2.00
2018-10-12T13:31:55.734Z,2.20
2018-10-12T13:34:26.403Z,2.52
2018-10-12T13:36:58.617Z,2.25
2018-10-12T13:39:30.834Z,2.52
2018-10-12T13:42:07.353Z,2.45
2018-10-12T13:44:38.935Z,2.30
2018-10-12T13:47:09.908Z,1.98
2018-10-12T13:49:42.422Z,2.30
2018-10-12T13:52:16.545Z,2.40
2018-10-12T13:54:49.954Z,2.10
2018-10-12T13:57:23.974Z,2.35
2018-10-12T13:59:57.320Z,2.00
2018-10-12T14:02:31.741Z,2.08
2018-10-12T14:05:05.361Z,2.45
2018-10-12T14:07:38.929Z,2.12
2018-10-12T14:10:13.973Z,2.20
2018-10-12T14:12:47.962Z,2.30
2018-10-12T14:15:21.174Z,2.25
2018-10-12T14:17:55.601Z,2.72
2018-10-12T14:20:30.326Z,2.20
2018-10-12T14:23:05.448Z,2.35
2018-10-12T14:25:40.114Z,2.10
2018-10-12T14:28:15.838Z,2.12
2018-10-12T14:30:48.722Z,2.10
2018-10-12T14:33:24.177Z,3.00
2018-10-12T14:35:58.258Z,2.17
2018-10-12T14:38:32.169Z,2.25
2018-10-12T14:41:04.073Z,2.47
2018-10-12T14:43:36.317Z,2.17
2018-10-12T14:46:10.713Z,2.02
2018-10-12T14:48:44.692Z,2.40
2018-10-12T14:51:17.539Z,2.00
2018-10-12T14:53:52.771Z,2.20
2018-10-12T14:56:25.363Z,2.17
2018-10-12T14:58:57.980Z,2.42
2018-10-12T15:01:31.288Z,1.90
2018-10-12T15:04:04.305Z,2.30
2018-10-12T15:06:36.331Z,2.25
2018-10-12T15:09:12.998Z,2.37
2018-10-12T15:11:45.792Z,2.20
2018-10-12T15:14:16.797Z,2.15
2018-10-12T15:16:48.270Z,2.20
2018-10-12T15:19:21.439Z,2.10
2018-10-12T15:21:55.363Z,2.25
2018-10-12T15:24:31.325Z,2.90
2018-10-12T15:27:15.776Z,2.35
2018-10-12T15:29:46.717Z,2.35
2018-10-12T15:32:18.115Z,1.98
2018-10-12T15:34:49.335Z,2.10
2018-10-12T15:37:20.378Z,2.27
2018-10-12T15:39:51.609Z,2.35
2018-10-12T15:42:23.275Z,2.40
2018-10-12T15:44:55.166Z,2.30
2018-10-12T15:47:26.635Z,2.42
2018-10-12T15:49:58.461Z,2.45
2018-10-12T15:52:29.934Z,2.22
2018-10-12T15:55:00.850Z,2.35
2018-10-12T15:57:32.602Z,2.00
2018-10-12T16:00:04.510Z,2.10
2018-10-12T16:02:39.324Z,2.15
2018-10-12T16:05:11.313Z,2.13
2018-10-12T16:07:42.741Z,2.30
2018-10-12T16:10:14.868Z,2.07
2018-10-12T16:12:46.236Z,2.20
2018-10-12T16:15:17.440Z,2.60
2018-10-12T16:17:56.001Z,2.27
2018-10-12T16:20:26.385Z,2.67
2018-10-12T16:22:59.101Z,2.40
2018-10-12T16:26:31.370Z,2.13
2018-10-12T16:29:02.508Z,2.40
2018-10-12T16:31:33.097Z,2.20
2018-10-12T16:34:03.814Z,1.90
2018-10-12T16:36:34.896Z,2.33
2018-10-12T16:39:10.845Z,2.27
2018-10-12T16:41:41.802Z,2.47
2018-10-12T16:44:11.876Z,2.40
2018-10-12T16:46:43.324Z,2.40
2018-10-12T16:49:13.935Z,2.47
2018-10-12T16:51:44.109Z,2.57
2018-10-12T16:54:14.795Z,2.40
2018-10-12T16:56:45.309Z,2.40
2018-10-12T16:59:16.232Z,2.70
2018-10-12T17:01:49.177Z,2.63
2018-10-12T17:04:25.724Z,2.60
2018-10-12T17:06:56.272Z,2.87
2018-10-12T17:09:28.176Z,2.77
2018-10-12T17:11:58.722Z,2.50
2018-10-12T17:14:29.004Z,2.90
2018-10-12T17:16:59.352Z,2.87
2018-10-12T17:19:30.087Z,2.77
2018-10-12T17:22:01.464Z,2.70
2018-10-12T17:24:32.881Z,3.23
2018-10-12T17:27:09.498Z,2.70
2018-10-12T17:29:40.360Z,3.17
2018-10-12T17:32:10.412Z,2.43
2018-10-12T17:34:46.041Z,2.57
2018-10-12T17:37:16.447Z,2.80
2018-10-12T17:39:46.744Z,2.87
2018-10-12T17:42:18.540Z,3.07
2018-10-12T17:44:48.924Z,2.90
2018-10-12T17:47:22.856Z,2.70
2018-10-12T17:49:53.531Z,2.90
2018-10-12T17:52:25.124Z,3.50
2018-10-12T17:54:55.562Z,3.30
2018-10-12T17:57:26.852Z,3.07
2018-10-12T17:59:57.639Z,2.90
2018-10-12T18:02:27.552Z,3.00
2018-10-12T18:05:00.977Z,2.90
2018-10-12T18:07:31.455Z,2.80
2018-10-12T18:10:01.813Z,3.20
2018-10-12T18:12:35.534Z,2.63
2018-10-12T18:15:08.042Z,3.03
2018-10-12T18:17:38.492Z,2.87
2018-10-12T18:20:09.168Z,3.10
2018-10-12T18:22:40.884Z,2.97
2018-10-12T18:25:11.080Z,2.90
2018-10-12T18:27:43.868Z,2.90
2018-10-12T18:30:14.088Z,2.90
2018-10-12T18:32:45.218Z,3.03
2018-10-12T18:35:15.589Z,2.80
2018-10-12T18:37:46.147Z,3.17
2018-10-12T18:40:16.572Z,2.83
2018-10-12T18:42:47.026Z,3.00
2018-10-12T18:45:28.183Z,2.90
2018-10-12T18:47:59.088Z,3.20
2018-10-12T18:50:38.788Z,3.03
2018-10-12T18:53:15.373Z,2.80
2018-10-12T18:55:48.265Z,2.90
2018-10-12T18:58:19.382Z,3.30
2018-10-12T19:00:51.104Z,3.13
2018-10-12T19:03:27.748Z,3.57
2018-10-12T19:06:00.199Z,3.20
2018-10-12T19:08:32.640Z,3.30
2018-10-12T19:11:04.484Z,3.20
2018-10-12T19:13:36.302Z,3.53
2018-10-12T19:16:07.585Z,3.40
2018-10-12T19:18:37.781Z,3.10
2018-10-12T19:21:13.873Z,3.57
2018-10-12T19:23:52.704Z,3.23
2018-10-12T19:26:31.393Z,3.80
2018-10-12T19:29:03.809Z,3.43
2018-10-12T19:31:38.405Z,3.37
2018-10-12T19:34:14.633Z,3.27
2018-10-12T19:36:46.591Z,3.83
2018-10-12T19:39:17.440Z,3.13
2018-10-12T19:41:47.541Z,3.13
2018-10-12T19:44:18.126Z,3.17
2018-10-12T19:46:48.579Z,3.70
2018-10-12T19:49:19.225Z,3.17
2018-10-12T19:51:49.260Z,2.90
2018-10-12T19:54:20.756Z,3.73
2018-10-12T19:56:51.816Z,3.50
2018-10-12T19:59:23.182Z,3.27
2018-10-12T20:01:54.110Z,4.00
2018-10-12T20:04:26.402Z,3.60
2018-10-12T20:06:59.507Z,3.70
2018-10-12T20:09:35.058Z,3.63
2018-10-12T20:12:06.463Z,4.00
2018-10-12T20:14:38.198Z,3.60
2018-10-12T20:17:09.306Z,3.77
2018-10-12T20:19:41.122Z,3.57
2018-10-12T20:22:12.693Z,3.87
2018-10-12T20:24:44.579Z,3.97
2018-10-12T20:27:16.046Z,3.77
2018-10-12T20:29:47.271Z,3.97
2018-10-12T20:32:22.451Z,3.97
2018-10-12T20:34:53.686Z,4.03
2018-10-12T20:37:25.052Z,3.90
2018-10-12T20:39:56.852Z,3.63
2018-10-12T20:42:27.354Z,3.87
2018-10-12T20:44:57.957Z,4.27
2018-10-12T20:47:28.449Z,3.77
2018-10-12T20:50:00.835Z,3.60
2018-10-12T20:52:31.414Z,3.60
2018-10-12T20:55:02.959Z,3.67
2018-10-12T20:57:37.606Z,3.43
2018-10-12T21:00:09.242Z,3.67
2018-10-12T21:02:41.858Z,3.80
2018-10-12T21:05:13.789Z,3.67
2018-10-12T21:07:45.813Z,3.57
2018-10-12T21:10:17.865Z,4.10
2018-10-12T21:12:48.425Z,3.70
2018-10-12T21:15:18.739Z,3.40
2018-10-12T21:17:51.050Z,3.73
2018-10-12T21:20:21.050Z,3.67
2018-10-12T21:22:51.204Z,3.80
2018-10-12T21:25:21.752Z,3.27
2018-10-12T21:27:53.036Z,3.27
2018-10-12T21:30:25.476Z,3.77
2018-10-12T21:32:56.528Z,3.77
2018-10-12T21:35:29.843Z,3.70
2018-10-12T21:38:01.212Z,3.70
2018-10-12T21:40:33.431Z,3.67
2018-10-12T21:43:04.693Z,3.90
2018-10-12T21:45:36.384Z,4.00
2018-10-12T21:48:07.171Z,4.00
2018-10-12T21:50:38.662Z,3.50
2018-10-12T21:53:12.616Z,3.77
2018-10-12T21:55:44.132Z,3.50
2018-10-12T21:58:15.471Z,3.87
2018-10-12T22:01:18.907Z,3.37
2018-10-12T22:03:55.726Z,3.57
2018-10-12T22:06:26.862Z,3.60
2018-10-12T22:09:06.046Z,3.60
2018-10-12T22:11:37.799Z,3.43
2018-10-12T22:14:09.210Z,3.37
2018-10-12T22:16:40.504Z,3.63
2018-10-12T22:19:12.351Z,3.30
2018-10-12T22:21:43.659Z,3.20
2018-10-12T22:24:18.839Z,3.23
2018-10-12T22:26:49.758Z,3.20
2018-10-12T22:29:20.193Z,3.47
2018-10-12T22:31:50.543Z,2.97
2018-10-12T22:34:20.911Z,3.77
2018-10-12T22:36:56.963Z,3.20
2018-10-12T22:39:28.559Z,3.17
2018-10-12T22:41:59.309Z,3.47
2018-10-12T22:44:29.947Z,3.17
2018-10-12T22:47:05.116Z,3.27
2018-10-12T22:49:35.792Z,3.00
2018-10-12T22:52:06.274Z,3.10
2018-10-12T22:54:38.579Z,3.30
2018-10-12T22:57:10.070Z,3.20
2018-10-12T22:59:43.841Z,4.00
2018-10-12T23:02:15.893Z,3.43
2018-10-12T23:04:46.964Z,3.57
2018-10-12T23:07:18.103Z,3.17
2018-10-12T23:09:51.057Z,3.30
2018-10-12T23:12:21.784Z,3.53
2018-10-12T23:14:52.285Z,3.30
2018-10-12T23:17:22.598Z,3.30
2018-10-12T23:19:53.085Z,3.20
2018-10-12T23:22:22.976Z,3.47
2018-10-12T23:24:53.390Z,3.47
2018-10-12T23:27:23.615Z,3.43
2018-10-12T23:29:54.400Z,3.40
2018-10-12T23:32:24.592Z,3.50
2018-10-12T23:34:55.016Z,3.33
2018-10-12T23:37:25.003Z,4.10
2018-10-12T23:39:55.154Z,3.30
2018-10-12T23:42:25.558Z,3.70
2018-10-12T23:44:55.627Z,3.43
2018-10-12T23:47:25.669Z,3.20
2018-10-12T23:49:55.896Z,3.30
2018-10-12T23:52:26.034Z,3.37
2018-10-12T23:54:55.952Z,3.40
2018-10-12T23:57:26.720Z,3.20
2018-10-12T23:59:57.635Z,3.50
